KQSI

2017-07-28 14:30:12Z

Plaintext report →

Temperature
High41.9 °C107.4 °F
Current36.4 °C97.5 °F
Low37.2 °C99.0 °F
Feels Like49.4 °C121.0 °F
Dewpoint27.0 °C80.6 °F
Winds
Speed and Direction5.6 m/s12.5 mi/h10 kn 6 °
Gust0.0 m/s0.00 mi/h 0 kn
SquallUnavailable
Pressure and Humidity
Pressure At Field Level994.4 mb29.4 in
Pressure At Sea Level999.2 mb29.5 in
Pressure Trend-0.6 mb -0.0 in
Pressure Tendency 6
Humidity60 %

Historical

Additional Information:

  METAR KQSI 281430Z AUTO 01010KT M1/4SM NCD 36/27 A2936 RMK AO2 SLP992
  10419 20372 56005 PWINO $=    
Cloud Cover
Layer 1 Undetected
Layer 2 Undetected
Layer 3 Undetected
Winds
2-minute Winds
Minimum5.0 m/s11.18 mi/h 9 kn357 °
Average7.0 m/s15.66 mi/h13 kn 6 °
Maximum9.0 m/s20.13 mi/h17 kn18 °
10-minute Winds
Minimum5.0 m/s11.18 mi/h 9 kn348 °
Average7.3 m/s16.33 mi/h14 kn5 °
Maximum9.7 m/s21.70 mi/h18 kn22 °
Precipitation
IntensityUnavailable
Rainfall
1-hour Total0.00 mm0.00 in
3-hour Total0.00 mm0.00 in
6-hour Total0.00 mm0.00 in
24-hour Total0.00 mm0.00 in
Precipitation
1-hour TotalUnavailable
3-hour TotalUnavailable
6-hour TotalUnavailable
24-hour TotalUnavailable